Eastern Asia — 3FQP2 — position and weather

sailwx.info

Track history (hours):
 
Tides and Currents Weather Stations Pressure Air Temp Water Temp Dewpoint Dewpoint Depression Visibility Wind Speed Wind Dir Waves Ship Positions

Eastern Asia

Last reported at 2016-May-12 08:13 UTC. Time now 2016-May-29 19:18 UTC.
Position N 46°59' W 130°55'.
Warning: this ship's position is 17 days out of date.

Length 175 m; draft 10.2 m.

Type: Cargo ship. MMSI: 355530000.

Date/timePositionNaut miles runAvg speedWind from/ knotsBaromVisibWave heightAir tempDewpointWater temp
2016-May-12 08:13N 46°59' W 130°55'1110.7
2016-May-12 07:13N 46°54' W 130°41'14710.6
2016-May-11 17:23N 46°12' W 127°15'911.3
2016-May-11 16:34N 46°12' W 127°02'2221.9
2016-May-11 15:32N 46°12' W 126°30'1 0.8
2016-May-11 14:33N 46°12' W 126°28'1111.4
2016-May-11 13:34N 46°12' W 126°12'2221.4
2016-May-11 12:33N 46°12' W 125°41'1111.0
2016-May-11 11:33N 46°12' W 125°25'1 1.1
2016-May-11 10:34N 46°12' W 125°23'1111.3
2016-May-11 09:34N 46°12' W 125°07'1111.3
2016-May-11 08:34N 46°12' W 124°51'1211.5
2016-May-11 07:34N 46°12' W 124°34'2020.3
2016-May-11 06:33N 46°15' W 124°05'1 1.0
2016-May-11 05:34N 46°15' W 124°04'9 9.4
2016-May-11 04:33N 46°12' W 123°51'1212.2
2016-May-11 03:33N 46°15' W 123°34'1010.1
2016-May-11 02:33N 46°09' W 123°23'1312.6
2016-May-11 01:34N 46°10' W 123°05'7 7.1
2016-May-11 00:33N 46°06' W 122°57'0 0.0
2016-May-10 23:33N 46°06' W 122°57'0 0.0
2016-May-10 22:33N 46°06' W 122°57'0 0.0
2016-May-10 21:30N 46°06' W 122°57'0 0.0
2016-May-10 20:33N 46°06' W 122°57'0 0.0
2016-May-10 19:30N 46°06' W 122°57'0 0.0
2016-May-10 18:33N 46°06' W 122°57'0 0.0
2016-May-10 17:30N 46°06' W 122°57'0 0.0
2016-May-10 16:33N 46°06' W 122°57'0 0.0
2016-May-10 15:33N 46°06' W 122°57'0 0.0
2016-May-10 14:33N 46°06' W 122°57'0 0.0
2016-May-10 13:33N 46°06' W 122°57'0 0.0
2016-May-10 12:33N 46°06' W 122°57'0 0.0
2016-May-10 11:33N 46°06' W 122°57'0 0.0
2016-May-10 10:33N 46°06' W 122°57'0 0.0
2016-May-10 09:33N 46°06' W 122°57'0 0.0
2016-May-10 08:33N 46°06' W 122°57'0 0.0
2016-May-10 07:33N 46°06' W 122°57'0 0.0
2016-May-10 06:33N 46°06' W 122°57'0 0.0
2016-May-10 05:33N 46°06' W 122°57'0 0.0
2016-May-10 04:33N 46°06' W 122°57'0 0.0
2016-May-10 03:33N 46°06' W 122°57'0 0.0
2016-May-10 02:33N 46°06' W 122°57'0 0.0
2016-May-10 01:33N 46°06' W 122°57'0 0.0
2016-May-10 00:33N 46°06' W 122°57'0 0.0
2016-May-09 23:30N 46°06' W 122°57'0 0.0
2016-May-09 22:33N 46°06' W 122°57'0 0.0
2016-May-09 21:33N 46°06' W 122°57'0 0.0
2016-May-09 20:33N 46°06' W 122°57'0 0.0
2016-May-09 19:33N 46°06' W 122°57'0 0.0
2016-May-09 18:30N 46°06' W 122°57'0 0.0
2016-May-09 17:30N 46°06' W 122°57'0 0.0
2016-May-09 16:33N 46°06' W 122°57'0 0.0
2016-May-09 15:33N 46°06' W 122°57'0 0.0
2016-May-09 14:30N 46°06' W 122°57'0 0.0
2016-May-09 13:30N 46°06' W 122°57'0 0.0
2016-May-09 12:30N 46°06' W 122°57'0 0.0
2016-May-09 11:33N 46°06' W 122°57'0 0.0
2016-May-09 10:30N 46°06' W 122°57'0 0.0
2016-May-09 09:33N 46°06' W 122°57'0 0.0
2016-May-09 08:30N 46°06' W 122°57'0 0.0
2016-May-09 07:33N 46°06' W 122°57'0 0.0
2016-May-09 06:33N 46°06' W 122°57'0 0.0
2016-May-09 05:30N 46°06' W 122°57'0 0.0
2016-May-09 04:33N 46°06' W 122°57'0 0.0
2016-May-09 03:33N 46°06' W 122°57'0 0.0
2016-May-09 02:30N 46°06' W 122°57'0 0.0
2016-May-09 01:30N 46°06' W 122°57'0 0.0
2016-May-09 00:33N 46°06' W 122°57'0 0.0
2016-May-08 23:30N 46°06' W 122°57'0 0.0
2016-May-08 22:30N 46°06' W 122°57'0 0.0
2016-May-08 21:30N 46°06' W 122°57'0 0.0
2016-May-08 20:33N 46°06' W 122°57'0 0.0
2016-May-08 19:33N 46°06' W 122°57'0 0.0
2016-May-08 18:30N 46°06' W 122°57'0 0.0
2016-May-08 17:30N 46°06' W 122°57'0 0.0
2016-May-08 16:30N 46°06' W 122°57'0 0.0
2016-May-08 15:33N 46°06' W 122°57'0 0.0
2016-May-08 14:33N 46°06' W 122°57'0 0.0
2016-May-08 13:30N 46°06' W 122°57'0 0.0
2016-May-08 12:30N 46°06' W 122°57'0 0.0
2016-May-08 11:33N 46°06' W 122°57'0 0.0
2016-May-08 10:33N 46°06' W 122°57'0 0.0
2016-May-08 09:33N 46°06' W 122°57'0 0.0
2016-May-08 08:33N 46°06' W 122°57'0 0.0
2016-May-08 07:33N 46°06' W 122°57'0 0.0
2016-May-08 06:33N 46°06' W 122°57'0 0.0
2016-May-08 05:33N 46°06' W 122°57'0 0.0
2016-May-08 04:33N 46°06' W 122°57'0 0.0
2016-May-08 03:33N 46°06' W 122°57'0 0.0
2016-May-08 02:33N 46°06' W 122°57'0 0.0
2016-May-08 01:33N 46°06' W 122°57'0 0.0
2016-May-08 00:30N 46°06' W 122°57'0 0.0
2016-May-07 23:33N 46°06' W 122°57'0 0.0
2016-May-07 22:33N 46°06' W 122°57'0 0.0
2016-May-07 21:33N 46°06' W 122°57'0 0.0
2016-May-07 20:33N 46°06' W 122°57'0 0.0
2016-May-07 19:33N 46°06' W 122°57'0 0.0
2016-May-07 18:33N 46°06' W 122°57'0 0.0
2016-May-07 17:33N 46°06' W 122°57'0 0.0
2016-May-07 16:30N 46°06' W 122°57'0 0.0
2016-May-07 15:33N 46°06' W 122°57'0 0.0
2016-May-07 14:33N 46°06' W 122°57'0 0.0
2016-May-07 13:30N 46°06' W 122°57'0 0.0
2016-May-07 12:33N 46°06' W 122°57'0 0.0
2016-May-07 11:30N 46°06' W 122°57'0 0.0
2016-May-07 10:33N 46°06' W 122°57'0 0.0
2016-May-07 09:30N 46°06' W 122°57'0 0.0
2016-May-07 08:30N 46°06' W 122°57'0 0.0
2016-May-07 07:30N 46°06' W 122°57'0 0.0
2016-May-07 06:30N 46°06' W 122°57'0 0.0
2016-May-07 05:33N 46°06' W 122°57'0 0.0
2016-May-07 04:30N 46°06' W 122°57'0 0.0
2016-May-07 03:33N 46°06' W 122°57'0 0.0
2016-May-07 02:27N 46°06' W 122°57'0 0.0
2016-May-07 01:24N 46°06' W 122°57'0 0.0
2016-May-07 00:27N 46°06' W 122°57'0 0.0
2016-May-06 23:33N 46°06' W 122°57'0 0.0
2016-May-06 22:30N 46°06' W 122°57'0 0.0
2016-May-06 21:27N 46°06' W 122°57'0 0.0
2016-May-06 20:30N 46°06' W 122°57'0 0.0
2016-May-06 19:33N 46°06' W 122°57'0 0.0
2016-May-06 18:30N 46°06' W 122°57'0 0.0
2016-May-06 17:33N 46°06' W 122°57'0 0.0
2016-May-06 16:33N 46°06' W 122°57'0 0.0
2016-May-06 15:33N 46°06' W 122°57'0 0.0
2016-May-06 14:33N 46°06' W 122°57'0 0.0
2016-May-06 13:33N 46°06' W 122°57'0 0.0
2016-May-06 12:27N 46°06' W 122°57'0 0.0
2016-May-06 11:27N 46°06' W 122°57'0 0.0
2016-May-06 10:33N 46°06' W 122°57'0 0.0
2016-May-06 09:24N 46°06' W 122°57'0 0.0
2016-May-06 08:30N 46°06' W 122°57'0 0.0
2016-May-06 07:30N 46°06' W 122°57'0 0.0
2016-May-06 06:33N 46°06' W 122°57'0 0.0
2016-May-06 05:24N 46°06' W 122°57'0 0.0
2016-May-06 04:30N 46°06' W 122°57'0 0.0
2016-May-06 03:33N 46°06' W 122°57'0 0.0
2016-May-06 02:30N 46°06' W 122°57'0 0.0
2016-May-06 01:33N 46°06' W 122°57'0 0.0
2016-May-06 00:33N 46°06' W 122°57'0 0.0
2016-May-05 23:30N 46°06' W 122°57'0 0.0
2016-May-05 22:33N 46°06' W 122°57'0 0.0
2016-May-05 21:33N 46°06' W 122°57'0 0.0
2016-May-05 20:33N 46°06' W 122°57'0 0.0
2016-May-05 19:33N 46°06' W 122°57'0 0.0
2016-May-05 18:30N 46°06' W 122°57'0 0.0
2016-May-05 17:33N 46°06' W 122°57'0 0.0
2016-May-05 16:30N 46°06' W 122°57'0 0.0
2016-May-05 15:30N 46°06' W 122°57'0 0.0
2016-May-05 14:30N 46°06' W 122°57'0 0.0
2016-May-05 13:27N 46°06' W 122°57'0 0.0
2016-May-05 12:30N 46°06' W 122°57'0 0.0
2016-May-05 11:33N 46°06' W 122°57'0 0.0
2016-May-05 10:30N 46°06' W 122°57'0 0.0
2016-May-05 09:30N 46°06' W 122°57'0 0.0
2016-May-05 08:33N 46°06' W 122°57'0 0.0
2016-May-05 07:30N 46°06' W 122°57'0 0.0
2016-May-05 06:33N 46°06' W 122°57'0 0.0
2016-May-05 05:30N 46°06' W 122°57'0 0.0
2016-May-05 04:33N 46°06' W 122°57'0 0.0
2016-May-05 03:30N 46°06' W 122°57'0 0.0
2016-May-05 02:30N 46°06' W 122°57'0 0.0
2016-May-05 01:33N 46°06' W 122°57'0 0.0
2016-May-05 00:33N 46°06' W 122°57'0 0.0
2016-May-04 23:33N 46°06' W 122°57'0 0.0
2016-May-04 22:30N 46°06' W 122°57'0 0.0
2016-May-04 21:27N 46°06' W 122°57'0 0.0
2016-May-04 20:30N 46°06' W 122°57'0 0.0
2016-May-04 19:33N 46°06' W 122°57'0 0.0
2016-May-04 18:30N 46°06' W 122°57'0 0.0
2016-May-04 17:30N 46°06' W 122°57'0 0.0
2016-May-04 16:30N 46°06' W 122°57'0 0.0
2016-May-04 15:30N 46°06' W 122°57'0 0.0
2016-May-04 14:33N 46°06' W 122°57'0 0.0
2016-May-04 13:34N 46°06' W 122°57'2 1.7
2016-May-04 12:29N 46°07' W 122°59'0 0.0
2016-May-04 11:32N 46°07' W 122°59'0 0.0
2016-May-04 10:29N 46°07' W 122°59'0 0.0
2016-May-04 09:29N 46°07' W 122°59'0 0.0
2016-May-04 08:32N 46°07' W 122°59'0 0.0
2016-May-04 07:29N 46°07' W 122°59'0 0.0
2016-May-04 06:32N 46°07' W 122°59'0 0.0
2016-May-04 05:29N 46°07' W 122°59'0 0.0
2016-May-04 04:29N 46°07' W 122°59'0 0.0
2016-May-04 03:32N 46°07' W 122°59'0 0.0
2016-May-04 02:32N 46°07' W 122°59'0 0.0
2016-May-04 01:26N 46°07' W 122°59'0 0.0
2016-May-04 00:32N 46°07' W 122°59'0 0.0
2016-May-03 23:32N 46°07' W 122°59'0 0.0
2016-May-03 22:32N 46°07' W 122°59'0 0.0
2016-May-03 21:32N 46°07' W 122°59'0 0.0
2016-May-03 20:20N 46°07' W 122°59'0 0.0
2016-May-03 19:32N 46°07' W 122°59'0 0.0
2016-May-03 18:32N 46°07' W 122°59'0 0.0
2016-May-03 17:32N 46°07' W 122°59'0 0.0
2016-May-03 16:29N 46°07' W 122°59'0 0.0
2016-May-03 15:32N 46°07' W 122°59'0 0.0
2016-May-03 14:29N 46°07' W 122°59'0 0.0
2016-May-03 13:29N 46°07' W 122°59'0 0.0
2016-May-03 12:29N 46°07' W 122°59'0 0.0
2016-May-03 11:32N 46°07' W 122°59'0 0.0
2016-May-03 10:32N 46°07' W 122°59'0 0.0
2016-May-03 09:29N 46°07' W 122°59'0 0.0
2016-May-03 08:32N 46°07' W 122°59'0 0.0
2016-May-03 07:32N 46°07' W 122°59'0 0.0
2016-May-03 06:29N 46°07' W 122°59'0 0.0
2016-May-03 05:32N 46°07' W 122°59'0 0.0
2016-May-03 04:32N 46°07' W 122°59'0 0.0
2016-May-03 03:29N 46°07' W 122°59'0 0.0
2016-May-03 02:26N 46°07' W 122°59'0 0.0
2016-May-03 01:32N 46°07' W 122°59'0 0.0
2016-May-03 00:17N 46°07' W 122°59'0 0.0
2016-May-02 23:29N 46°07' W 122°59'0 0.0
2016-May-02 22:29N 46°07' W 122°59'0 0.0
2016-May-02 21:32N 46°07' W 122°59'0 0.0
2016-May-02 20:32N 46°07' W 122°59'0 0.0
2016-May-02 19:32N 46°07' W 122°59'0 0.0
2016-May-02 18:32N 46°07' W 122°59'0 0.0
2016-May-02 17:32N 46°07' W 122°59'5 4.6
2016-May-02 16:34N 46°10' W 123°04'1111.0
2016-May-02 15:33N 46°09' W 123°20'1010.2
2016-May-02 14:33N 46°16' W 123°29'1212.5
2016-May-02 13:34N 46°13' W 123°47'1010.0
2016-May-02 12:34N 46°15' W 124°01'1111.0
2016-May-02 11:34N 46°12' W 124°16'1 1.0
2016-May-02 10:33N 46°12' W 124°18'1010.0
2016-May-02 09:34N 46°12' W 124°32'1212.2
2016-May-02 08:34N 46°12' W 124°50'  
Track history (hours):
 
Tides and Currents Weather Stations Pressure Air Temp Water Temp Dewpoint Dewpoint Depression Visibility Wind Speed Wind Dir Waves Ship Positions

Eastern Asia

Last reported at 2016-May-12 08:13 UTC. Time now 2016-May-29 19:18 UTC.
Position N 46°59' W 130°55'.
Warning: this ship's position is 17 days out of date.

Length 175 m; draft 10.2 m.

Type: Cargo ship. MMSI: 355530000.

Date/timePositionNaut miles runAvg speedWind from/ knotsBaromVisibWave heightAir tempDewpointWater temp
2016-May-12 08:13N 46°59' W 130°55'1110.7
2016-May-12 07:13N 46°54' W 130°41'14710.6
2016-May-11 17:23N 46°12' W 127°15'911.3
2016-May-11 16:34N 46°12' W 127°02'2221.9
2016-May-11 15:32N 46°12' W 126°30'1 0.8
2016-May-11 14:33N 46°12' W 126°28'1111.4
2016-May-11 13:34N 46°12' W 126°12'2221.4
2016-May-11 12:33N 46°12' W 125°41'1111.0
2016-May-11 11:33N 46°12' W 125°25'1 1.1
2016-May-11 10:34N 46°12' W 125°23'1111.3
2016-May-11 09:34N 46°12' W 125°07'1111.3
2016-May-11 08:34N 46°12' W 124°51'1211.5
2016-May-11 07:34N 46°12' W 124°34'2020.3
2016-May-11 06:33N 46°15' W 124°05'1 1.0
2016-May-11 05:34N 46°15' W 124°04'9 9.4
2016-May-11 04:33N 46°12' W 123°51'1212.2
2016-May-11 03:33N 46°15' W 123°34'1010.1
2016-May-11 02:33N 46°09' W 123°23'1312.6
2016-May-11 01:34N 46°10' W 123°05'7 7.1
2016-May-11 00:33N 46°06' W 122°57'0 0.0
2016-May-10 23:33N 46°06' W 122°57'0 0.0
2016-May-10 22:33N 46°06' W 122°57'0 0.0
2016-May-10 21:30N 46°06' W 122°57'0 0.0
2016-May-10 20:33N 46°06' W 122°57'0 0.0
2016-May-10 19:30N 46°06' W 122°57'0 0.0
2016-May-10 18:33N 46°06' W 122°57'0 0.0
2016-May-10 17:30N 46°06' W 122°57'0 0.0
2016-May-10 16:33N 46°06' W 122°57'0 0.0
2016-May-10 15:33N 46°06' W 122°57'0 0.0
2016-May-10 14:33N 46°06' W 122°57'0 0.0
2016-May-10 13:33N 46°06' W 122°57'0 0.0
2016-May-10 12:33N 46°06' W 122°57'0 0.0
2016-May-10 11:33N 46°06' W 122°57'0 0.0
2016-May-10 10:33N 46°06' W 122°57'0 0.0
2016-May-10 09:33N 46°06' W 122°57'0 0.0
2016-May-10 08:33N 46°06' W 122°57'0 0.0
2016-May-10 07:33N 46°06' W 122°57'0 0.0
2016-May-10 06:33N 46°06' W 122°57'0 0.0
2016-May-10 05:33N 46°06' W 122°57'0 0.0
2016-May-10 04:33N 46°06' W 122°57'0 0.0
2016-May-10 03:33N 46°06' W 122°57'0 0.0
2016-May-10 02:33N 46°06' W 122°57'0 0.0
2016-May-10 01:33N 46°06' W 122°57'0 0.0
2016-May-10 00:33N 46°06' W 122°57'0 0.0
2016-May-09 23:30N 46°06' W 122°57'0 0.0
2016-May-09 22:33N 46°06' W 122°57'0 0.0
2016-May-09 21:33N 46°06' W 122°57'0 0.0
2016-May-09 20:33N 46°06' W 122°57'0 0.0
2016-May-09 19:33N 46°06' W 122°57'0 0.0
2016-May-09 18:30N 46°06' W 122°57'0 0.0
2016-May-09 17:30N 46°06' W 122°57'0 0.0
2016-May-09 16:33N 46°06' W 122°57'0 0.0
2016-May-09 15:33N 46°06' W 122°57'0 0.0
2016-May-09 14:30N 46°06' W 122°57'0 0.0
2016-May-09 13:30N 46°06' W 122°57'0 0.0
2016-May-09 12:30N 46°06' W 122°57'0 0.0
2016-May-09 11:33N 46°06' W 122°57'0 0.0
2016-May-09 10:30N 46°06' W 122°57'0 0.0
2016-May-09 09:33N 46°06' W 122°57'0 0.0
2016-May-09 08:30N 46°06' W 122°57'0 0.0
2016-May-09 07:33N 46°06' W 122°57'0 0.0
2016-May-09 06:33N 46°06' W 122°57'0 0.0
2016-May-09 05:30N 46°06' W 122°57'0 0.0
2016-May-09 04:33N 46°06' W 122°57'0 0.0
2016-May-09 03:33N 46°06' W 122°57'0 0.0
2016-May-09 02:30N 46°06' W 122°57'0 0.0
2016-May-09 01:30N 46°06' W 122°57'0 0.0
2016-May-09 00:33N 46°06' W 122°57'0 0.0
2016-May-08 23:30N 46°06' W 122°57'0 0.0
2016-May-08 22:30N 46°06' W 122°57'0 0.0
2016-May-08 21:30N 46°06' W 122°57'0 0.0
2016-May-08 20:33N 46°06' W 122°57'0 0.0
2016-May-08 19:33N 46°06' W 122°57'0 0.0
2016-May-08 18:30N 46°06' W 122°57'0 0.0
2016-May-08 17:30N 46°06' W 122°57'0 0.0
2016-May-08 16:30N 46°06' W 122°57'0 0.0
2016-May-08 15:33N 46°06' W 122°57'0 0.0
2016-May-08 14:33N 46°06' W 122°57'0 0.0
2016-May-08 13:30N 46°06' W 122°57'0 0.0
2016-May-08 12:30N 46°06' W 122°57'0 0.0
2016-May-08 11:33N 46°06' W 122°57'0 0.0
2016-May-08 10:33N 46°06' W 122°57'0 0.0
2016-May-08 09:33N 46°06' W 122°57'0 0.0
2016-May-08 08:33N 46°06' W 122°57'0 0.0
2016-May-08 07:33N 46°06' W 122°57'0 0.0
2016-May-08 06:33N 46°06' W 122°57'0 0.0
2016-May-08 05:33N 46°06' W 122°57'0 0.0
2016-May-08 04:33N 46°06' W 122°57'0 0.0
2016-May-08 03:33N 46°06' W 122°57'0 0.0
2016-May-08 02:33N 46°06' W 122°57'0 0.0
2016-May-08 01:33N 46°06' W 122°57'0 0.0
2016-May-08 00:30N 46°06' W 122°57'0 0.0
2016-May-07 23:33N 46°06' W 122°57'0 0.0
2016-May-07 22:33N 46°06' W 122°57'0 0.0
2016-May-07 21:33N 46°06' W 122°57'0 0.0
2016-May-07 20:33N 46°06' W 122°57'0 0.0
2016-May-07 19:33N 46°06' W 122°57'0 0.0
2016-May-07 18:33N 46°06' W 122°57'0 0.0
2016-May-07 17:33N 46°06' W 122°57'0 0.0
2016-May-07 16:30N 46°06' W 122°57'0 0.0
2016-May-07 15:33N 46°06' W 122°57'0 0.0
2016-May-07 14:33N 46°06' W 122°57'0 0.0
2016-May-07 13:30N 46°06' W 122°57'0 0.0
2016-May-07 12:33N 46°06' W 122°57'0 0.0
2016-May-07 11:30N 46°06' W 122°57'0 0.0
2016-May-07 10:33N 46°06' W 122°57'0 0.0
2016-May-07 09:30N 46°06' W 122°57'0 0.0
2016-May-07 08:30N 46°06' W 122°57'0 0.0
2016-May-07 07:30N 46°06' W 122°57'0 0.0
2016-May-07 06:30N 46°06' W 122°57'0 0.0
2016-May-07 05:33N 46°06' W 122°57'0 0.0
2016-May-07 04:30N 46°06' W 122°57'0 0.0
2016-May-07 03:33N 46°06' W 122°57'0 0.0
2016-May-07 02:27N 46°06' W 122°57'0 0.0
2016-May-07 01:24N 46°06' W 122°57'0 0.0
2016-May-07 00:27N 46°06' W 122°57'0 0.0
2016-May-06 23:33N 46°06' W 122°57'0 0.0
2016-May-06 22:30N 46°06' W 122°57'0 0.0
2016-May-06 21:27N 46°06' W 122°57'0 0.0
2016-May-06 20:30N 46°06' W 122°57'0 0.0
2016-May-06 19:33N 46°06' W 122°57'0 0.0
2016-May-06 18:30N 46°06' W 122°57'0 0.0
2016-May-06 17:33N 46°06' W 122°57'0 0.0
2016-May-06 16:33N 46°06' W 122°57'0 0.0
2016-May-06 15:33N 46°06' W 122°57'0 0.0
2016-May-06 14:33N 46°06' W 122°57'0 0.0
2016-May-06 13:33N 46°06' W 122°57'0 0.0
2016-May-06 12:27N 46°06' W 122°57'0 0.0
2016-May-06 11:27N 46°06' W 122°57'0 0.0
2016-May-06 10:33N 46°06' W 122°57'0 0.0
2016-May-06 09:24N 46°06' W 122°57'0 0.0
2016-May-06 08:30N 46°06' W 122°57'0 0.0
2016-May-06 07:30N 46°06' W 122°57'0 0.0
2016-May-06 06:33N 46°06' W 122°57'0 0.0
2016-May-06 05:24N 46°06' W 122°57'0 0.0
2016-May-06 04:30N 46°06' W 122°57'0 0.0
2016-May-06 03:33N 46°06' W 122°57'0 0.0
2016-May-06 02:30N 46°06' W 122°57'0 0.0
2016-May-06 01:33N 46°06' W 122°57'0 0.0
2016-May-06 00:33N 46°06' W 122°57'0 0.0
2016-May-05 23:30N 46°06' W 122°57'0 0.0
2016-May-05 22:33N 46°06' W 122°57'0 0.0
2016-May-05 21:33N 46°06' W 122°57'0 0.0
2016-May-05 20:33N 46°06' W 122°57'0 0.0
2016-May-05 19:33N 46°06' W 122°57'0 0.0
2016-May-05 18:30N 46°06' W 122°57'0 0.0
2016-May-05 17:33N 46°06' W 122°57'0 0.0
2016-May-05 16:30N 46°06' W 122°57'0 0.0
2016-May-05 15:30N 46°06' W 122°57'0 0.0
2016-May-05 14:30N 46°06' W 122°57'0 0.0
2016-May-05 13:27N 46°06' W 122°57'0 0.0
2016-May-05 12:30N 46°06' W 122°57'0 0.0
2016-May-05 11:33N 46°06' W 122°57'0 0.0
2016-May-05 10:30N 46°06' W 122°57'0 0.0
2016-May-05 09:30N 46°06' W 122°57'0 0.0
2016-May-05 08:33N 46°06' W 122°57'0 0.0
2016-May-05 07:30N 46°06' W 122°57'0 0.0
2016-May-05 06:33N 46°06' W 122°57'0 0.0
2016-May-05 05:30N 46°06' W 122°57'0 0.0
2016-May-05 04:33N 46°06' W 122°57'0 0.0
2016-May-05 03:30N 46°06' W 122°57'0 0.0
2016-May-05 02:30N 46°06' W 122°57'0 0.0
2016-May-05 01:33N 46°06' W 122°57'0 0.0
2016-May-05 00:33N 46°06' W 122°57'0 0.0
2016-May-04 23:33N 46°06' W 122°57'0 0.0
2016-May-04 22:30N 46°06' W 122°57'0 0.0
2016-May-04 21:27N 46°06' W 122°57'0 0.0
2016-May-04 20:30N 46°06' W 122°57'0 0.0
2016-May-04 19:33N 46°06' W 122°57'0 0.0
2016-May-04 18:30N 46°06' W 122°57'0 0.0
2016-May-04 17:30N 46°06' W 122°57'0 0.0
2016-May-04 16:30N 46°06' W 122°57'0 0.0
2016-May-04 15:30N 46°06' W 122°57'0 0.0
2016-May-04 14:33N 46°06' W 122°57'0 0.0
2016-May-04 13:34N 46°06' W 122°57'2 1.7
2016-May-04 12:29N 46°07' W 122°59'0 0.0
2016-May-04 11:32N 46°07' W 122°59'0 0.0
2016-May-04 10:29N 46°07' W 122°59'0 0.0
2016-May-04 09:29N 46°07' W 122°59'0 0.0
2016-May-04 08:32N 46°07' W 122°59'0 0.0
2016-May-04 07:29N 46°07' W 122°59'0 0.0
2016-May-04 06:32N 46°07' W 122°59'0 0.0
2016-May-04 05:29N 46°07' W 122°59'0 0.0
2016-May-04 04:29N 46°07' W 122°59'0 0.0
2016-May-04 03:32N 46°07' W 122°59'0 0.0
2016-May-04 02:32N 46°07' W 122°59'0 0.0
2016-May-04 01:26N 46°07' W 122°59'0 0.0
2016-May-04 00:32N 46°07' W 122°59'0 0.0
2016-May-03 23:32N 46°07' W 122°59'0 0.0
2016-May-03 22:32N 46°07' W 122°59'0 0.0
2016-May-03 21:32N 46°07' W 122°59'0 0.0
2016-May-03 20:20N 46°07' W 122°59'0 0.0
2016-May-03 19:32N 46°07' W 122°59'0 0.0
2016-May-03 18:32N 46°07' W 122°59'0 0.0
2016-May-03 17:32N 46°07' W 122°59'0 0.0
2016-May-03 16:29N 46°07' W 122°59'0 0.0
2016-May-03 15:32N 46°07' W 122°59'0 0.0
2016-May-03 14:29N 46°07' W 122°59'0 0.0
2016-May-03 13:29N 46°07' W 122°59'0 0.0
2016-May-03 12:29N 46°07' W 122°59'0 0.0
2016-May-03 11:32N 46°07' W 122°59'0 0.0
2016-May-03 10:32N 46°07' W 122°59'0 0.0
2016-May-03 09:29N 46°07' W 122°59'0 0.0
2016-May-03 08:32N 46°07' W 122°59'0 0.0
2016-May-03 07:32N 46°07' W 122°59'0 0.0
2016-May-03 06:29N 46°07' W 122°59'0 0.0
2016-May-03 05:32N 46°07' W 122°59'0 0.0
2016-May-03 04:32N 46°07' W 122°59'0 0.0
2016-May-03 03:29N 46°07' W 122°59'0 0.0
2016-May-03 02:26N 46°07' W 122°59'0 0.0
2016-May-03 01:32N 46°07' W 122°59'0 0.0
2016-May-03 00:17N 46°07' W 122°59'0 0.0
2016-May-02 23:29N 46°07' W 122°59'0 0.0
2016-May-02 22:29N 46°07' W 122°59'0 0.0
2016-May-02 21:32N 46°07' W 122°59'0 0.0
2016-May-02 20:32N 46°07' W 122°59'0 0.0
2016-May-02 19:32N 46°07' W 122°59'0 0.0
2016-May-02 18:32N 46°07' W 122°59'0 0.0
2016-May-02 17:32N 46°07' W 122°59'5 4.6
2016-May-02 16:34N 46°10' W 123°04'1111.0
2016-May-02 15:33N 46°09' W 123°20'1010.2
2016-May-02 14:33N 46°16' W 123°29'1212.5
2016-May-02 13:34N 46°13' W 123°47'1010.0
2016-May-02 12:34N 46°15' W 124°01'1111.0
2016-May-02 11:34N 46°12' W 124°16'1 1.0
2016-May-02 10:33N 46°12' W 124°18'1010.0
2016-May-02 09:34N 46°12' W 124°32'1212.2
2016-May-02 08:34N 46°12' W 124°50'  

Dump ship's entire track history